sensor_id;sensor_type;location;lat;lon;timestamp;temperature;humidity
9810;DHT22;4944;52.514;13.192;2022-07-21T00:01:36;29.60;76.40
9810;DHT22;4944;52.514;13.192;2022-07-21T00:04:03;29.60;76.40
9810;DHT22;4944;52.514;13.192;2022-07-21T00:06:30;29.60;76.80
9810;DHT22;4944;52.514;13.192;2022-07-21T00:08:58;29.50;76.80
9810;DHT22;4944;52.514;13.192;2022-07-21T00:11:25;29.50;77.00
9810;DHT22;4944;52.514;13.192;2022-07-21T00:13:52;29.50;76.90
9810;DHT22;4944;52.514;13.192;2022-07-21T00:16:19;29.50;77.10
9810;DHT22;4944;52.514;13.192;2022-07-21T00:18:46;29.50;76.90
9810;DHT22;4944;52.514;13.192;2022-07-21T00:21:13;29.50;76.90
9810;DHT22;4944;52.514;13.192;2022-07-21T00:23:40;29.50;77.20
9810;DHT22;4944;52.514;13.192;2022-07-21T00:26:08;29.40;76.60
9810;DHT22;4944;52.514;13.192;2022-07-21T00:28:35;29.40;76.70
9810;DHT22;4944;52.514;13.192;2022-07-21T00:31:02;29.50;77.00
9810;DHT22;4944;52.514;13.192;2022-07-21T00:33:31;29.40;77.30
9810;DHT22;4944;52.514;13.192;2022-07-21T00:35:57;29.40;77.10
9810;DHT22;4944;52.514;13.192;2022-07-21T00:38:24;29.40;77.20
9810;DHT22;4944;52.514;13.192;2022-07-21T00:40:51;29.40;77.20
9810;DHT22;4944;52.514;13.192;2022-07-21T00:43:19;29.40;77.20
9810;DHT22;4944;52.514;13.192;2022-07-21T00:45:46;29.30;77.10
9810;DHT22;4944;52.514;13.192;2022-07-21T00:48:13;29.30;77.30
9810;DHT22;4944;52.514;13.192;2022-07-21T00:50:40;29.30;77.50
9810;DHT22;4944;52.514;13.192;2022-07-21T00:53:07;29.30;77.30
9810;DHT22;4944;52.514;13.192;2022-07-21T00:55:34;29.20;77.30
9810;DHT22;4944;52.514;13.192;2022-07-21T00:58:02;29.20;77.40
9810;DHT22;4944;52.514;13.192;2022-07-21T01:00:31;29.20;77.60
9810;DHT22;4944;52.514;13.192;2022-07-21T01:02:58;29.20;77.70
9810;DHT22;4944;52.514;13.192;2022-07-21T01:05:25;29.10;77.70
9810;DHT22;4944;52.514;13.192;2022-07-21T01:07:54;29.10;77.70
9810;DHT22;4944;52.514;13.192;2022-07-21T01:10:24;29.10;77.80
9810;DHT22;4944;52.514;13.192;2022-07-21T01:12:51;29.00;78.00
9810;DHT22;4944;52.514;13.192;2022-07-21T01:15:19;29.00;78.20
9810;DHT22;4944;52.514;13.192;2022-07-21T01:17:49;29.00;78.20
9810;DHT22;4944;52.514;13.192;2022-07-21T01:20:18;28.90;78.40
9810;DHT22;4944;52.514;13.192;2022-07-21T01:22:49;28.90;78.60
9810;DHT22;4944;52.514;13.192;2022-07-21T01:25:17;28.80;78.50
9810;DHT22;4944;52.514;13.192;2022-07-21T01:27:44;28.80;78.70
9810;DHT22;4944;52.514;13.192;2022-07-21T01:30:13;28.90;78.70
9810;DHT22;4944;52.514;13.192;2022-07-21T01:32:40;28.90;78.80
9810;DHT22;4944;52.514;13.192;2022-07-21T01:35:09;28.80;78.80
9810;DHT22;4944;52.514;13.192;2022-07-21T01:37:40;28.80;79.10
9810;DHT22;4944;52.514;13.192;2022-07-21T01:40:10;28.80;79.00
9810;DHT22;4944;52.514;13.192;2022-07-21T01:42:54;28.80;79.00
9810;DHT22;4944;52.514;13.192;2022-07-21T01:45:22;28.80;79.30
9810;DHT22;4944;52.514;13.192;2022-07-21T01:47:49;28.70;79.30
9810;DHT22;4944;52.514;13.192;2022-07-21T01:50:16;28.70;79.30
9810;DHT22;4944;52.514;13.192;2022-07-21T01:52:44;28.60;79.40
9810;DHT22;4944;52.514;13.192;2022-07-21T01:55:13;28.60;79.70
9810;DHT22;4944;52.514;13.192;2022-07-21T01:57:40;28.40;80.70
9810;DHT22;4944;52.514;13.192;2022-07-21T02:00:08;28.30;81.60
9810;DHT22;4944;52.514;13.192;2022-07-21T02:02:37;28.30;82.10
9810;DHT22;4944;52.514;13.192;2022-07-21T02:05:04;28.20;83.80
9810;DHT22;4944;52.514;13.192;2022-07-21T02:07:31;28.20;82.70
9810;DHT22;4944;52.514;13.192;2022-07-21T02:09:58;28.30;82.70
9810;DHT22;4944;52.514;13.192;2022-07-21T02:12:26;28.30;82.10
9810;DHT22;4944;52.514;13.192;2022-07-21T02:14:54;28.20;81.70
9810;DHT22;4944;52.514;13.192;2022-07-21T02:17:20;28.10;82.00
9810;DHT22;4944;52.514;13.192;2022-07-21T02:19:47;28.20;82.20
9810;DHT22;4944;52.514;13.192;2022-07-21T02:22:14;28.20;81.60
9810;DHT22;4944;52.514;13.192;2022-07-21T02:24:41;28.20;81.40
9810;DHT22;4944;52.514;13.192;2022-07-21T02:27:08;28.20;81.50
9810;DHT22;4944;52.514;13.192;2022-07-21T02:29:36;28.00;81.60
9810;DHT22;4944;52.514;13.192;2022-07-21T02:32:04;28.10;82.20
9810;DHT22;4944;52.514;13.192;2022-07-21T02:34:31;28.00;82.40
9810;DHT22;4944;52.514;13.192;2022-07-21T02:36:57;28.00;82.60
9810;DHT22;4944;52.514;13.192;2022-07-21T02:39:24;28.00;82.30
9810;DHT22;4944;52.514;13.192;2022-07-21T02:41:51;28.00;81.90
9810;DHT22;4944;52.514;13.192;2022-07-21T02:44:18;28.00;82.20
9810;DHT22;4944;52.514;13.192;2022-07-21T02:46:46;28.00;81.40
9810;DHT22;4944;52.514;13.192;2022-07-21T02:49:13;28.00;81.20
9810;DHT22;4944;52.514;13.192;2022-07-21T02:51:40;28.00;81.20
9810;DHT22;4944;52.514;13.192;2022-07-21T02:54:07;27.90;81.00
9810;DHT22;4944;52.514;13.192;2022-07-21T02:56:33;27.90;81.50
9810;DHT22;4944;52.514;13.192;2022-07-21T02:59:00;27.90;81.20
9810;DHT22;4944;52.514;13.192;2022-07-21T03:01:27;27.90;81.10
9810;DHT22;4944;52.514;13.192;2022-07-21T03:03:55;28.00;81.00
9810;DHT22;4944;52.514;13.192;2022-07-21T03:06:22;28.00;81.10
9810;DHT22;4944;52.514;13.192;2022-07-21T03:08:49;28.00;81.10
9810;DHT22;4944;52.514;13.192;2022-07-21T03:11:16;28.00;81.30
9810;DHT22;4944;52.514;13.192;2022-07-21T03:13:43;28.00;81.40
9810;DHT22;4944;52.514;13.192;2022-07-21T03:16:10;28.00;81.30
9810;DHT22;4944;52.514;13.192;2022-07-21T03:18:36;27.90;81.40
9810;DHT22;4944;52.514;13.192;2022-07-21T03:21:08;27.90;81.70
9810;DHT22;4944;52.514;13.192;2022-07-21T03:23:34;27.80;82.30
9810;DHT22;4944;52.514;13.192;2022-07-21T03:26:01;27.90;84.00
9810;DHT22;4944;52.514;13.192;2022-07-21T03:28:30;27.80;84.40
9810;DHT22;4944;52.514;13.192;2022-07-21T03:30:57;27.80;85.20
9810;DHT22;4944;52.514;13.192;2022-07-21T03:33:24;27.60;84.60
9810;DHT22;4944;52.514;13.192;2022-07-21T03:35:51;27.60;84.10
9810;DHT22;4944;52.514;13.192;2022-07-21T03:38:20;27.50;84.70
9810;DHT22;4944;52.514;13.192;2022-07-21T03:40:47;27.50;83.40
9810;DHT22;4944;52.514;13.192;2022-07-21T03:43:13;27.50;85.00
9810;DHT22;4944;52.514;13.192;2022-07-21T03:45:40;27.40;86.20
9810;DHT22;4944;52.514;13.192;2022-07-21T03:48:08;27.40;85.20
9810;DHT22;4944;52.514;13.192;2022-07-21T03:50:37;27.40;85.30
9810;DHT22;4944;52.514;13.192;2022-07-21T03:53:05;27.30;84.30
9810;DHT22;4944;52.514;13.192;2022-07-21T03:55:33;27.30;84.70
9810;DHT22;4944;52.514;13.192;2022-07-21T03:58:02;27.30;85.00
9810;DHT22;4944;52.514;13.192;2022-07-21T04:00:32;27.30;86.00
9810;DHT22;4944;52.514;13.192;2022-07-21T04:03:00;27.30;86.00
9810;DHT22;4944;52.514;13.192;2022-07-21T04:05:27;27.40;87.40
9810;DHT22;4944;52.514;13.192;2022-07-21T04:07:55;27.40;89.30
9810;DHT22;4944;52.514;13.192;2022-07-21T04:10:24;27.40;90.20
9810;DHT22;4944;52.514;13.192;2022-07-21T04:12:54;27.30;88.90
9810;DHT22;4944;52.514;13.192;2022-07-21T04:15:21;27.00;87.80
9810;DHT22;4944;52.514;13.192;2022-07-21T04:17:48;26.80;87.10
9810;DHT22;4944;52.514;13.192;2022-07-21T04:20:16;26.70;87.70
9810;DHT22;4944;52.514;13.192;2022-07-21T04:22:44;26.70;87.80
9810;DHT22;4944;52.514;13.192;2022-07-21T04:25:11;26.70;87.70
9810;DHT22;4944;52.514;13.192;2022-07-21T04:27:38;26.40;87.00
9810;DHT22;4944;52.514;13.192;2022-07-21T04:30:09;26.00;87.70
9810;DHT22;4944;52.514;13.192;2022-07-21T04:32:36;25.70;88.70
9810;DHT22;4944;52.514;13.192;2022-07-21T04:35:06;25.40;90.10
9810;DHT22;4944;52.514;13.192;2022-07-21T04:37:33;25.20;90.30
9810;DHT22;4944;52.514;13.192;2022-07-21T04:40:00;25.10;90.40
9810;DHT22;4944;52.514;13.192;2022-07-21T04:42:27;25.20;90.60
9810;DHT22;4944;52.514;13.192;2022-07-21T04:44:54;25.20;90.80
9810;DHT22;4944;52.514;13.192;2022-07-21T04:47:22;25.00;91.00
9810;DHT22;4944;52.514;13.192;2022-07-21T04:49:49;25.00;91.40
9810;DHT22;4944;52.514;13.192;2022-07-21T04:52:16;24.70;92.00
9810;DHT22;4944;52.514;13.192;2022-07-21T04:54:43;24.60;92.70
9810;DHT22;4944;52.514;13.192;2022-07-21T04:57:10;24.60;93.00
9810;DHT22;4944;52.514;13.192;2022-07-21T04:59:37;24.30;93.10
9810;DHT22;4944;52.514;13.192;2022-07-21T05:02:04;24.30;93.40
9810;DHT22;4944;52.514;13.192;2022-07-21T05:04:33;24.30;93.50
9810;DHT22;4944;52.514;13.192;2022-07-21T05:06:59;24.30;93.70
9810;DHT22;4944;52.514;13.192;2022-07-21T05:09:26;24.40;93.90
9810;DHT22;4944;52.514;13.192;2022-07-21T05:11:53;24.20;94.20
9810;DHT22;4944;52.514;13.192;2022-07-21T05:14:20;24.10;94.50
9810;DHT22;4944;52.514;13.192;2022-07-21T05:16:47;24.00;94.70
9810;DHT22;4944;52.514;13.192;2022-07-21T05:19:13;23.90;94.70
9810;DHT22;4944;52.514;13.192;2022-07-21T05:21:42;24.00;95.00
9810;DHT22;4944;52.514;13.192;2022-07-21T05:24:10;24.00;95.00
9810;DHT22;4944;52.514;13.192;2022-07-21T05:26:37;24.00;95.10
9810;DHT22;4944;52.514;13.192;2022-07-21T05:29:04;24.10;95.10
9810;DHT22;4944;52.514;13.192;2022-07-21T05:31:31;24.10;95.20
9810;DHT22;4944;52.514;13.192;2022-07-21T05:33:57;24.10;95.30
9810;DHT22;4944;52.514;13.192;2022-07-21T05:36:24;24.10;95.40
9810;DHT22;4944;52.514;13.192;2022-07-21T05:38:52;23.90;95.80
9810;DHT22;4944;52.514;13.192;2022-07-21T05:41:19;23.90;95.80
9810;DHT22;4944;52.514;13.192;2022-07-21T05:43:46;23.90;95.80
9810;DHT22;4944;52.514;13.192;2022-07-21T05:46:13;23.80;96.00
9810;DHT22;4944;52.514;13.192;2022-07-21T05:48:40;23.80;95.90
9810;DHT22;4944;52.514;13.192;2022-07-21T05:51:07;23.70;95.90
9810;DHT22;4944;52.514;13.192;2022-07-21T05:53:34;23.70;96.00
9810;DHT22;4944;52.514;13.192;2022-07-21T05:56:05;23.80;96.30
9810;DHT22;4944;52.514;13.192;2022-07-21T05:58:33;23.90;95.90
9810;DHT22;4944;52.514;13.192;2022-07-21T06:01:00;23.80;96.00
9810;DHT22;4944;52.514;13.192;2022-07-21T06:03:38;23.80;96.10
9810;DHT22;4944;52.514;13.192;2022-07-21T06:06:06;23.80;96.10
9810;DHT22;4944;52.514;13.192;2022-07-21T06:08:32;23.80;96.00
9810;DHT22;4944;52.514;13.192;2022-07-21T06:11:01;23.70;96.30
9810;DHT22;4944;52.514;13.192;2022-07-21T06:13:30;23.60;96.20
9810;DHT22;4944;52.514;13.192;2022-07-21T06:15:57;23.60;96.10
9810;DHT22;4944;52.514;13.192;2022-07-21T06:18:23;23.60;96.20
9810;DHT22;4944;52.514;13.192;2022-07-21T06:20:50;23.70;96.30
9810;DHT22;4944;52.514;13.192;2022-07-21T06:23:17;23.80;96.30
9810;DHT22;4944;52.514;13.192;2022-07-21T06:25:44;23.80;96.00
9810;DHT22;4944;52.514;13.192;2022-07-21T06:28:12;23.60;96.20
9810;DHT22;4944;52.514;13.192;2022-07-21T06:30:39;23.70;96.40
9810;DHT22;4944;52.514;13.192;2022-07-21T06:33:06;23.80;96.40
9810;DHT22;4944;52.514;13.192;2022-07-21T06:35:33;24.00;96.20
9810;DHT22;4944;52.514;13.192;2022-07-21T06:38:00;24.00;96.00
9810;DHT22;4944;52.514;13.192;2022-07-21T06:40:27;24.00;96.10
9810;DHT22;4944;52.514;13.192;2022-07-21T06:42:54;23.80;96.30
9810;DHT22;4944;52.514;13.192;2022-07-21T06:45:23;23.70;96.40
9810;DHT22;4944;52.514;13.192;2022-07-21T06:47:49;23.80;96.50
9810;DHT22;4944;52.514;13.192;2022-07-21T06:50:16;24.00;96.50
9810;DHT22;4944;52.514;13.192;2022-07-21T06:52:44;24.10;96.40
9810;DHT22;4944;52.514;13.192;2022-07-21T06:55:10;24.20;96.20
9810;DHT22;4944;52.514;13.192;2022-07-21T06:57:37;24.10;96.10
9810;DHT22;4944;52.514;13.192;2022-07-21T07:00:05;24.20;96.50
9810;DHT22;4944;52.514;13.192;2022-07-21T07:02:34;24.20;96.50
9810;DHT22;4944;52.514;13.192;2022-07-21T07:05:01;24.30;96.20
9810;DHT22;4944;52.514;13.192;2022-07-21T07:07:28;24.30;96.20
9810;DHT22;4944;52.514;13.192;2022-07-21T07:09:56;24.40;96.30
9810;DHT22;4944;52.514;13.192;2022-07-21T07:12:22;24.50;96.00
9810;DHT22;4944;52.514;13.192;2022-07-21T07:14:49;24.60;95.70
9810;DHT22;4944;52.514;13.192;2022-07-21T07:17:17;24.70;95.70
9810;DHT22;4944;52.514;13.192;2022-07-21T07:19:45;24.80;95.80
9810;DHT22;4944;52.514;13.192;2022-07-21T07:22:12;24.70;96.10
9810;DHT22;4944;52.514;13.192;2022-07-21T07:24:40;24.80;96.00
9810;DHT22;4944;52.514;13.192;2022-07-21T07:27:07;24.80;96.00
9810;DHT22;4944;52.514;13.192;2022-07-21T07:29:34;24.80;96.00
9810;DHT22;4944;52.514;13.192;2022-07-21T07:32:00;24.90;96.00
9810;DHT22;4944;52.514;13.192;2022-07-21T07:34:27;24.80;96.00
9810;DHT22;4944;52.514;13.192;2022-07-21T07:36:55;24.80;96.10
9810;DHT22;4944;52.514;13.192;2022-07-21T07:39:22;24.80;96.10
9810;DHT22;4944;52.514;13.192;2022-07-21T07:41:49;25.00;96.00
9810;DHT22;4944;52.514;13.192;2022-07-21T07:44:16;25.10;95.90
9810;DHT22;4944;52.514;13.192;2022-07-21T07:46:43;25.30;95.90
9810;DHT22;4944;52.514;13.192;2022-07-21T07:49:10;25.40;96.10
9810;DHT22;4944;52.514;13.192;2022-07-21T07:51:36;25.50;95.80
9810;DHT22;4944;52.514;13.192;2022-07-21T07:54:05;25.60;95.50
9810;DHT22;4944;52.514;13.192;2022-07-21T07:56:32;25.60;95.70
9810;DHT22;4944;52.514;13.192;2022-07-21T07:58:58;25.60;95.50
9810;DHT22;4944;52.514;13.192;2022-07-21T08:01:25;25.40;95.40
9810;DHT22;4944;52.514;13.192;2022-07-21T08:03:52;25.40;95.60
9810;DHT22;4944;52.514;13.192;2022-07-21T08:06:19;25.40;95.50
9810;DHT22;4944;52.514;13.192;2022-07-21T08:08:46;25.40;95.70
9810;DHT22;4944;52.514;13.192;2022-07-21T08:11:14;25.50;95.90
9810;DHT22;4944;52.514;13.192;2022-07-21T08:13:41;25.50;95.60
9810;DHT22;4944;52.514;13.192;2022-07-21T08:16:08;25.60;95.70
9810;DHT22;4944;52.514;13.192;2022-07-21T08:18:37;25.70;95.60
9810;DHT22;4944;52.514;13.192;2022-07-21T08:21:08;25.80;95.50
9810;DHT22;4944;52.514;13.192;2022-07-21T08:23:35;26.10;95.60
9810;DHT22;4944;52.514;13.192;2022-07-21T08:26:02;26.10;95.40
9810;DHT22;4944;52.514;13.192;2022-07-21T08:28:33;26.30;95.50
9810;DHT22;4944;52.514;13.192;2022-07-21T08:31:00;26.40;94.90
9810;DHT22;4944;52.514;13.192;2022-07-21T08:33:27;26.50;95.30
9810;DHT22;4944;52.514;13.192;2022-07-21T08:35:54;26.70;95.30
9810;DHT22;4944;52.514;13.192;2022-07-21T08:38:20;26.70;94.10
9810;DHT22;4944;52.514;13.192;2022-07-21T08:40:47;26.70;93.80
9810;DHT22;4944;52.514;13.192;2022-07-21T08:43:14;26.70;93.90
9810;DHT22;4944;52.514;13.192;2022-07-21T08:45:44;26.60;93.90
9810;DHT22;4944;52.514;13.192;2022-07-21T08:48:11;26.50;93.80
9810;DHT22;4944;52.514;13.192;2022-07-21T08:50:43;26.50;93.80
9810;DHT22;4944;52.514;13.192;2022-07-21T08:53:10;26.60;93.70
9810;DHT22;4944;52.514;13.192;2022-07-21T08:55:38;26.70;94.00
9810;DHT22;4944;52.514;13.192;2022-07-21T08:58:07;26.70;93.60
9810;DHT22;4944;52.514;13.192;2022-07-21T09:00:35;26.80;93.60
9810;DHT22;4944;52.514;13.192;2022-07-21T09:03:12;27.00;93.70
9810;DHT22;4944;52.514;13.192;2022-07-21T09:05:40;26.90;93.60
9810;DHT22;4944;52.514;13.192;2022-07-21T09:08:07;26.90;93.60
9810;DHT22;4944;52.514;13.192;2022-07-21T09:10:34;26.90;93.40
9810;DHT22;4944;52.514;13.192;2022-07-21T09:13:03;26.90;93.20
9810;DHT22;4944;52.514;13.192;2022-07-21T09:15:31;27.10;93.60
9810;DHT22;4944;52.514;13.192;2022-07-21T09:18:11;27.10;93.40
9810;DHT22;4944;52.514;13.192;2022-07-21T09:20:45;27.30;93.30
9810;DHT22;4944;52.514;13.192;2022-07-21T09:23:18;27.40;93.10
9810;DHT22;4944;52.514;13.192;2022-07-21T09:25:47;27.50;92.90
9810;DHT22;4944;52.514;13.192;2022-07-21T09:28:16;27.60;92.60
9810;DHT22;4944;52.514;13.192;2022-07-21T09:30:57;27.60;92.30
9810;DHT22;4944;52.514;13.192;2022-07-21T09:33:28;27.60;92.70
9810;DHT22;4944;52.514;13.192;2022-07-21T09:36:11;27.70;92.00
9810;DHT22;4944;52.514;13.192;2022-07-21T09:38:41;27.90;91.50
9810;DHT22;4944;52.514;13.192;2022-07-21T09:41:11;28.00;91.70
9810;DHT22;4944;52.514;13.192;2022-07-21T09:43:40;28.10;91.30
9810;DHT22;4944;52.514;13.192;2022-07-21T09:46:13;28.20;91.30
9810;DHT22;4944;52.514;13.192;2022-07-21T09:48:43;28.10;91.10
9810;DHT22;4944;52.514;13.192;2022-07-21T09:51:26;28.00;91.00
9810;DHT22;4944;52.514;13.192;2022-07-21T09:53:56;27.90;91.00
9810;DHT22;4944;52.514;13.192;2022-07-21T09:56:24;28.00;91.10
9810;DHT22;4944;52.514;13.192;2022-07-21T09:58:52;27.90;91.00
9810;DHT22;4944;52.514;13.192;2022-07-21T10:01:20;27.90;90.90
9810;DHT22;4944;52.514;13.192;2022-07-21T10:03:49;27.80;91.00
9810;DHT22;4944;52.514;13.192;2022-07-21T10:06:18;27.80;91.00
9810;DHT22;4944;52.514;13.192;2022-07-21T10:08:46;27.90;91.80
9810;DHT22;4944;52.514;13.192;2022-07-21T10:11:13;27.90;91.80
9810;DHT22;4944;52.514;13.192;2022-07-21T10:13:39;27.90;91.00
9810;DHT22;4944;52.514;13.192;2022-07-21T10:16:09;27.80;91.00
9810;DHT22;4944;52.514;13.192;2022-07-21T10:18:42;27.80;91.10
9810;DHT22;4944;52.514;13.192;2022-07-21T10:21:21;27.70;91.00
9810;DHT22;4944;52.514;13.192;2022-07-21T10:23:52;27.70;91.10
9810;DHT22;4944;52.514;13.192;2022-07-21T10:26:20;27.60;91.10
9810;DHT22;4944;52.514;13.192;2022-07-21T10:28:47;27.60;91.30
9810;DHT22;4944;52.514;13.192;2022-07-21T10:31:17;27.50;91.40
9810;DHT22;4944;52.514;13.192;2022-07-21T10:34:00;27.50;91.50
9810;DHT22;4944;52.514;13.192;2022-07-21T10:36:45;27.50;91.70
9810;DHT22;4944;52.514;13.192;2022-07-21T10:39:27;27.40;91.50
9810;DHT22;4944;52.514;13.192;2022-07-21T10:41:59;27.50;91.70
9810;DHT22;4944;52.514;13.192;2022-07-21T10:44:46;27.30;91.70
9810;DHT22;4944;52.514;13.192;2022-07-21T10:47:15;27.30;91.90
9810;DHT22;4944;52.514;13.192;2022-07-21T10:49:49;27.30;91.90
9810;DHT22;4944;52.514;13.192;2022-07-21T10:55:20;27.50;91.90
9810;DHT22;4944;52.514;13.192;2022-07-21T10:58:24;27.60;92.10
9810;DHT22;4944;52.514;13.192;2022-07-21T11:00:52;27.50;92.20
9810;DHT22;4944;52.514;13.192;2022-07-21T11:03:25;27.60;92.10
9810;DHT22;4944;52.514;13.192;2022-07-21T11:09:08;27.60;92.60
9810;DHT22;4944;52.514;13.192;2022-07-21T11:11:38;27.80;92.80
9810;DHT22;4944;52.514;13.192;2022-07-21T11:14:07;28.00;92.80
9810;DHT22;4944;52.514;13.192;2022-07-21T11:16:58;28.10;92.40
9810;DHT22;4944;52.514;13.192;2022-07-21T11:19:30;28.00;92.00
9810;DHT22;4944;52.514;13.192;2022-07-21T11:22:00;27.90;91.80
9810;DHT22;4944;52.514;13.192;2022-07-21T11:24:27;27.90;91.90
9810;DHT22;4944;52.514;13.192;2022-07-21T11:26:57;27.90;91.90
9810;DHT22;4944;52.514;13.192;2022-07-21T11:29:25;27.80;91.60
9810;DHT22;4944;52.514;13.192;2022-07-21T11:31:52;27.70;91.70
9810;DHT22;4944;52.514;13.192;2022-07-21T11:34:20;27.70;91.70
9810;DHT22;4944;52.514;13.192;2022-07-21T11:36:47;27.70;91.70
9810;DHT22;4944;52.514;13.192;2022-07-21T11:39:15;27.70;91.70
9810;DHT22;4944;52.514;13.192;2022-07-21T11:41:44;27.60;91.70
9810;DHT22;4944;52.514;13.192;2022-07-21T11:44:22;27.50;91.90
9810;DHT22;4944;52.514;13.192;2022-07-21T11:46:52;27.50;91.70
9810;DHT22;4944;52.514;13.192;2022-07-21T11:49:19;27.30;91.60
9810;DHT22;4944;52.514;13.192;2022-07-21T11:51:51;27.20;91.80
9810;DHT22;4944;52.514;13.192;2022-07-21T11:54:25;27.30;91.80
9810;DHT22;4944;52.514;13.192;2022-07-21T11:56:53;27.10;92.00
9810;DHT22;4944;52.514;13.192;2022-07-21T11:59:22;26.90;92.00
9810;DHT22;4944;52.514;13.192;2022-07-21T12:01:54;26.80;92.20
9810;DHT22;4944;52.514;13.192;2022-07-21T12:04:43;26.70;92.50
9810;DHT22;4944;52.514;13.192;2022-07-21T12:07:16;26.80;92.60
9810;DHT22;4944;52.514;13.192;2022-07-21T12:09:46;26.70;93.00
9810;DHT22;4944;52.514;13.192;2022-07-21T12:12:13;26.70;93.70
9810;DHT22;4944;52.514;13.192;2022-07-21T12:14:47;26.70;93.90
9810;DHT22;4944;52.514;13.192;2022-07-21T12:17:16;26.70;93.60
9810;DHT22;4944;52.514;13.192;2022-07-21T12:19:44;26.60;94.00
9810;DHT22;4944;52.514;13.192;2022-07-21T12:22:11;26.50;94.20
9810;DHT22;4944;52.514;13.192;2022-07-21T12:24:53;26.50;94.50
9810;DHT22;4944;52.514;13.192;2022-07-21T12:27:20;26.40;94.70
9810;DHT22;4944;52.514;13.192;2022-07-21T12:29:49;26.40;95.40
9810;DHT22;4944;52.514;13.192;2022-07-21T12:32:40;26.50;95.30
9810;DHT22;4944;52.514;13.192;2022-07-21T12:35:21;26.50;95.80
9810;DHT22;4944;52.514;13.192;2022-07-21T12:37:58;26.50;96.00
9810;DHT22;4944;52.514;13.192;2022-07-21T12:40:27;26.50;97.30
9810;DHT22;4944;52.514;13.192;2022-07-21T12:43:11;26.60;97.90
9810;DHT22;4944;52.514;13.192;2022-07-21T12:45:56;26.60;98.70
9810;DHT22;4944;52.514;13.192;2022-07-21T12:48:24;26.70;99.40
9810;DHT22;4944;52.514;13.192;2022-07-21T12:51:12;26.70;99.30
9810;DHT22;4944;52.514;13.192;2022-07-21T12:53:43;26.80;99.90
9810;DHT22;4944;52.514;13.192;2022-07-21T12:56:11;26.80;99.90
9810;DHT22;4944;52.514;13.192;2022-07-21T12:58:39;26.80;99.90
9810;DHT22;4944;52.514;13.192;2022-07-21T13:01:07;26.90;99.90
9810;DHT22;4944;52.514;13.192;2022-07-21T13:03:34;26.80;99.90
9810;DHT22;4944;52.514;13.192;2022-07-21T13:06:05;26.70;99.90
9810;DHT22;4944;52.514;13.192;2022-07-21T13:08:32;26.80;99.90
9810;DHT22;4944;52.514;13.192;2022-07-21T13:11:00;26.80;99.90
9810;DHT22;4944;52.514;13.192;2022-07-21T13:13:27;27.10;99.90
9810;DHT22;4944;52.514;13.192;2022-07-21T13:15:54;27.30;99.90
9810;DHT22;4944;52.514;13.192;2022-07-21T13:18:23;27.40;99.90
9810;DHT22;4944;52.514;13.192;2022-07-21T13:20:50;27.40;99.90
9810;DHT22;4944;52.514;13.192;2022-07-21T13:23:17;27.30;99.90
9810;DHT22;4944;52.514;13.192;2022-07-21T13:25:45;27.30;99.90
9810;DHT22;4944;52.514;13.192;2022-07-21T13:28:11;27.20;99.90
9810;DHT22;4944;52.514;13.192;2022-07-21T13:30:38;27.10;99.90
9810;DHT22;4944;52.514;13.192;2022-07-21T13:33:05;27.00;99.90
9810;DHT22;4944;52.514;13.192;2022-07-21T13:35:33;26.90;99.90
9810;DHT22;4944;52.514;13.192;2022-07-21T13:38:00;26.70;99.90
9810;DHT22;4944;52.514;13.192;2022-07-21T13:40:28;26.60;99.90
9810;DHT22;4944;52.514;13.192;2022-07-21T13:42:55;26.60;99.90
9810;DHT22;4944;52.514;13.192;2022-07-21T13:45:22;26.60;99.90
9810;DHT22;4944;52.514;13.192;2022-07-21T13:47:48;26.70;99.90
9810;DHT22;4944;52.514;13.192;2022-07-21T13:50:16;26.70;99.90
9810;DHT22;4944;52.514;13.192;2022-07-21T13:52:45;26.70;99.90
9810;DHT22;4944;52.514;13.192;2022-07-21T13:55:11;26.70;99.90
9810;DHT22;4944;52.514;13.192;2022-07-21T13:57:40;26.80;99.90
9810;DHT22;4944;52.514;13.192;2022-07-21T14:00:09;27.20;99.90
9810;DHT22;4944;52.514;13.192;2022-07-21T14:02:37;27.70;99.90
9810;DHT22;4944;52.514;13.192;2022-07-21T14:05:05;27.90;99.90
9810;DHT22;4944;52.514;13.192;2022-07-21T14:07:31;27.90;99.90
9810;DHT22;4944;52.514;13.192;2022-07-21T14:10:00;27.90;99.70
9810;DHT22;4944;52.514;13.192;2022-07-21T14:12:26;27.70;99.90
9810;DHT22;4944;52.514;13.192;2022-07-21T14:14:53;27.70;99.80
9810;DHT22;4944;52.514;13.192;2022-07-21T14:17:20;27.70;99.80
9810;DHT22;4944;52.514;13.192;2022-07-21T14:19:47;27.70;99.30
9810;DHT22;4944;52.514;13.192;2022-07-21T14:22:14;27.90;98.70
9810;DHT22;4944;52.514;13.192;2022-07-21T14:24:41;28.20;98.50
9810;DHT22;4944;52.514;13.192;2022-07-21T14:27:29;28.50;98.60
9810;DHT22;4944;52.514;13.192;2022-07-21T14:29:56;28.90;98.60
9810;DHT22;4944;52.514;13.192;2022-07-21T14:32:24;29.30;98.30
9810;DHT22;4944;52.514;13.192;2022-07-21T14:34:51;29.50;98.20
9810;DHT22;4944;52.514;13.192;2022-07-21T14:37:19;29.60;97.00
9810;DHT22;4944;52.514;13.192;2022-07-21T14:39:46;29.50;97.30
9810;DHT22;4944;52.514;13.192;2022-07-21T14:42:14;29.50;97.80
9810;DHT22;4944;52.514;13.192;2022-07-21T14:44:42;29.80;97.60
9810;DHT22;4944;52.514;13.192;2022-07-21T14:47:11;29.90;97.30
9810;DHT22;4944;52.514;13.192;2022-07-21T14:49:37;30.00;96.70
9810;DHT22;4944;52.514;13.192;2022-07-21T14:52:04;29.90;96.00
9810;DHT22;4944;52.514;13.192;2022-07-21T14:54:32;29.80;96.10
9810;DHT22;4944;52.514;13.192;2022-07-21T14:56:59;29.20;96.10
9810;DHT22;4944;52.514;13.192;2022-07-21T14:59:26;28.70;96.90
9810;DHT22;4944;52.514;13.192;2022-07-21T15:01:54;28.60;97.70
9810;DHT22;4944;52.514;13.192;2022-07-21T15:04:21;28.40;98.30
9810;DHT22;4944;52.514;13.192;2022-07-21T15:06:48;28.20;98.70
9810;DHT22;4944;52.514;13.192;2022-07-21T15:09:16;28.10;99.10
9810;DHT22;4944;52.514;13.192;2022-07-21T15:11:42;28.00;98.80
9810;DHT22;4944;52.514;13.192;2022-07-21T15:14:09;27.90;99.20
9810;DHT22;4944;52.514;13.192;2022-07-21T15:16:36;27.90;98.90
9810;DHT22;4944;52.514;13.192;2022-07-21T15:19:04;27.90;99.00
9810;DHT22;4944;52.514;13.192;2022-07-21T15:21:31;27.80;99.00
9810;DHT22;4944;52.514;13.192;2022-07-21T15:23:58;27.80;98.80
9810;DHT22;4944;52.514;13.192;2022-07-21T15:26:25;27.80;99.00
9810;DHT22;4944;52.514;13.192;2022-07-21T15:28:53;28.00;98.70
9810;DHT22;4944;52.514;13.192;2022-07-21T15:31:20;28.20;98.50
9810;DHT22;4944;52.514;13.192;2022-07-21T15:33:47;28.20;98.40
9810;DHT22;4944;52.514;13.192;2022-07-21T15:36:15;28.20;98.60
9810;DHT22;4944;52.514;13.192;2022-07-21T15:38:42;28.20;98.60
9810;DHT22;4944;52.514;13.192;2022-07-21T15:41:09;28.20;99.10
9810;DHT22;4944;52.514;13.192;2022-07-21T15:43:35;28.20;98.90
9810;DHT22;4944;52.514;13.192;2022-07-21T15:46:06;28.00;99.30
9810;DHT22;4944;52.514;13.192;2022-07-21T15:48:33;28.00;99.60
9810;DHT22;4944;52.514;13.192;2022-07-21T15:51:00;27.90;99.80
9810;DHT22;4944;52.514;13.192;2022-07-21T15:53:31;27.90;99.80
9810;DHT22;4944;52.514;13.192;2022-07-21T15:55:58;27.70;99.90
9810;DHT22;4944;52.514;13.192;2022-07-21T15:58:25;27.40;99.90
9810;DHT22;4944;52.514;13.192;2022-07-21T16:00:52;27.00;99.90